createdAt,value
2018-05-31T00:02:19.348Z,101335.73
2018-05-31T00:04:47.666Z,101333.80
2018-05-31T00:07:16.038Z,101340.00
2018-05-31T00:09:44.358Z,101333.69
2018-05-31T00:12:12.661Z,101331.63
2018-05-31T00:14:41.297Z,101326.57
2018-05-31T00:17:09.646Z,101331.02
2018-05-31T00:19:37.961Z,101333.14
2018-05-31T00:22:06.681Z,101330.94
2018-05-31T00:24:35.026Z,101331.91
2018-05-31T00:27:03.341Z,101325.34
2018-05-31T00:29:31.742Z,101325.88
2018-05-31T00:32:00.143Z,101325.37
2018-05-31T00:34:28.709Z,101318.13
2018-05-31T00:36:57.059Z,101327.03
2018-05-31T00:39:25.417Z,101322.92
2018-05-31T00:41:53.755Z,101319.78
2018-05-31T00:44:22.535Z,101320.20
2018-05-31T00:46:50.857Z,101319.81
2018-05-31T00:49:19.187Z,101324.32
2018-05-31T00:51:47.897Z,101325.63
2018-05-31T00:54:16.233Z,101333.10
2018-05-31T00:56:44.651Z,101319.56
2018-05-31T00:59:13.192Z,101326.16
2018-05-31T01:01:41.501Z,101313.29
2018-05-31T01:04:09.801Z,101336.69
2018-05-31T01:06:38.232Z,101316.86
2018-05-31T01:09:06.536Z,101321.84
2018-05-31T01:11:34.910Z,101324.39
2018-05-31T01:14:03.256Z,101321.69
2018-05-31T01:16:31.562Z,101327.75
2018-05-31T01:18:59.863Z,101324.69
2018-05-31T01:21:28.216Z,101323.34
2018-05-31T01:23:56.546Z,101327.12
2018-05-31T01:26:24.858Z,101323.25
2018-05-31T01:28:53.228Z,101328.66
2018-05-31T01:31:21.596Z,101322.06
2018-05-31T01:33:49.922Z,101319.42
2018-05-31T01:36:19.371Z,101321.92
2018-05-31T01:38:47.724Z,101315.58
2018-05-31T01:41:16.076Z,101316.66
2018-05-31T01:43:44.646Z,101314.61
2018-05-31T01:46:12.956Z,101313.24
2018-05-31T01:48:41.258Z,101311.56
2018-05-31T01:51:09.592Z,101309.91
2018-05-31T01:53:37.917Z,101308.63
2018-05-31T01:56:06.239Z,101304.80
2018-05-31T01:58:34.646Z,101306.42
2018-05-31T02:01:02.971Z,101295.59
2018-05-31T02:03:31.293Z,101305.78
2018-05-31T02:05:59.741Z,101298.24
2018-05-31T02:08:28.057Z,101296.67
2018-05-31T02:10:56.501Z,101302.52
2018-05-31T02:13:25.838Z,101288.34
2018-05-31T02:15:54.179Z,101298.94
2018-05-31T02:18:22.496Z,101297.66
2018-05-31T02:20:50.853Z,101304.19
2018-05-31T02:23:19.212Z,101298.86
2018-05-31T02:25:47.559Z,101299.86
2018-05-31T02:28:15.909Z,101308.66
2018-05-31T02:30:44.273Z,101309.15
2018-05-31T02:33:12.618Z,101315.84
2018-05-31T02:35:40.945Z,101310.14
2018-05-31T02:38:09.272Z,101311.67
2018-05-31T02:40:37.591Z,101313.56
2018-05-31T02:43:05.937Z,101312.64
2018-05-31T02:45:34.263Z,101316.20
2018-05-31T02:48:02.589Z,101316.14
2018-05-31T02:50:31.103Z,101317.97
2018-05-31T02:52:59.422Z,101318.98
2018-05-31T02:55:27.784Z,101311.35
2018-05-31T02:57:56.406Z,101309.39
2018-05-31T03:00:24.992Z,101308.11
2018-05-31T03:02:53.317Z,101311.36
2018-05-31T03:05:21.928Z,101311.78
2018-05-31T03:07:50.278Z,101319.82
2018-05-31T03:10:18.669Z,101317.84
2018-05-31T03:12:47.124Z,101320.75
2018-05-31T03:15:15.464Z,101318.91
2018-05-31T03:17:43.836Z,101320.55
2018-05-31T03:20:12.178Z,101328.44
2018-05-31T03:22:40.503Z,101327.69
2018-05-31T03:25:08.825Z,101327.23
2018-05-31T03:27:37.172Z,101327.95
2018-05-31T03:30:05.511Z,101334.38
2018-05-31T03:32:33.843Z,101328.12
2018-05-31T03:35:02.205Z,101320.73
2018-05-31T03:37:30.607Z,101332.77
2018-05-31T03:39:59.657Z,101328.44
2018-05-31T03:42:28.040Z,101327.16
2018-05-31T03:44:56.423Z,101334.41
2018-05-31T03:47:24.910Z,101329.83
2018-05-31T03:49:53.439Z,101327.88
2018-05-31T03:52:21.750Z,101331.50
2018-05-31T03:54:50.161Z,101332.92
2018-05-31T03:57:18.752Z,101334.34
2018-05-31T03:59:47.116Z,101314.30
2018-05-31T04:02:15.431Z,101319.06
2018-05-31T04:04:43.946Z,101312.38
2018-05-31T04:07:12.265Z,101320.55
2018-05-31T04:09:40.620Z,101315.02
2018-05-31T04:12:09.057Z,101322.12
2018-05-31T04:14:37.378Z,101324.60
2018-05-31T04:17:05.706Z,101316.72
2018-05-31T04:19:34.041Z,101315.63
2018-05-31T04:22:02.463Z,101316.58
2018-05-31T04:24:30.809Z,101314.73
2018-05-31T04:26:59.497Z,101307.38
2018-05-31T04:29:27.892Z,101318.35
2018-05-31T04:31:56.209Z,101322.27
2018-05-31T04:34:24.817Z,101325.89
2018-05-31T04:36:53.117Z,101320.23
2018-05-31T04:39:21.481Z,101318.73
2018-05-31T04:41:49.863Z,101310.80
2018-05-31T04:44:18.242Z,101316.70
2018-05-31T04:46:46.630Z,101316.84
2018-05-31T04:49:15.010Z,101311.36
2018-05-31T04:51:43.361Z,101309.16
2018-05-31T04:54:11.670Z,101312.52
2018-05-31T04:56:40.030Z,101312.64
2018-05-31T04:59:08.389Z,101313.31
2018-05-31T05:01:36.709Z,101311.97
2018-05-31T05:04:05.179Z,101311.69
2018-05-31T05:06:33.676Z,101318.57
2018-05-31T05:09:02.125Z,101313.72
2018-05-31T05:11:30.443Z,101311.87
2018-05-31T05:13:58.763Z,101314.23
2018-05-31T05:16:27.081Z,101311.02
2018-05-31T05:18:55.465Z,101315.67
2018-05-31T05:21:23.793Z,101317.29
2018-05-31T05:23:52.154Z,101309.19
2018-05-31T05:26:20.545Z,101314.02
2018-05-31T05:28:48.905Z,101316.14
2018-05-31T05:31:17.259Z,101315.80
2018-05-31T05:33:45.919Z,101322.26
2018-05-31T05:36:14.284Z,101335.09
2018-05-31T05:38:42.603Z,101326.08
2018-05-31T05:41:11.058Z,101340.86
2018-05-31T05:43:39.382Z,101340.05
2018-05-31T05:46:07.736Z,101335.42
2018-05-31T05:48:36.064Z,101338.50
2018-05-31T05:51:05.340Z,101344.94
2018-05-31T05:53:33.620Z,101341.55
2018-05-31T05:56:02.214Z,101339.06
2018-05-31T05:58:30.629Z,101338.06
2018-05-31T06:00:58.926Z,101341.16
2018-05-31T06:03:27.285Z,101341.92
2018-05-31T06:05:55.727Z,101346.15
2018-05-31T06:08:24.043Z,101348.86
2018-05-31T06:10:52.419Z,101354.19
2018-05-31T06:13:20.798Z,101346.86
2018-05-31T06:15:49.145Z,101356.27
2018-05-31T06:18:17.515Z,101364.20
2018-05-31T06:20:45.835Z,101354.38
2018-05-31T06:23:14.165Z,101363.38
2018-05-31T06:25:42.943Z,101364.05
2018-05-31T06:28:11.274Z,101370.58
2018-05-31T06:30:44.641Z,101378.67
2018-05-31T06:33:12.970Z,101382.61
2018-05-31T06:35:41.278Z,101370.16
2018-05-31T06:38:09.633Z,101377.51
2018-05-31T06:40:38.013Z,101368.72
2018-05-31T06:43:06.360Z,101364.61
2018-05-31T06:45:34.847Z,101368.05
2018-05-31T06:48:03.158Z,101377.83
2018-05-31T06:50:31.500Z,101368.05
2018-05-31T06:53:00.157Z,101373.91
2018-05-31T06:55:28.495Z,101390.08
2018-05-31T06:57:56.837Z,101381.12
2018-05-31T07:00:25.195Z,101378.41
2018-05-31T07:02:53.601Z,101372.72
2018-05-31T07:05:21.987Z,101377.52
2018-05-31T07:07:50.430Z,101379.17
2018-05-31T07:10:18.811Z,101382.36
2018-05-31T07:12:47.189Z,101382.77
2018-05-31T07:15:17.446Z,101379.08
2018-05-31T07:17:45.843Z,101388.52
2018-05-31T07:20:14.149Z,101384.19
2018-05-31T07:22:42.527Z,101381.98
2018-05-31T07:25:10.849Z,101388.02
2018-05-31T07:27:39.170Z,101387.75
2018-05-31T07:30:07.860Z,101384.46
2018-05-31T07:32:36.246Z,101393.84
2018-05-31T07:35:04.554Z,101396.34
2018-05-31T07:37:33.194Z,101399.14
2018-05-31T07:40:01.650Z,101399.47
2018-05-31T07:42:29.971Z,101396.34
2018-05-31T07:44:58.316Z,101392.44
2018-05-31T07:47:26.622Z,101391.16
2018-05-31T07:49:54.969Z,101394.70
2018-05-31T07:52:24.583Z,101394.08
2018-05-31T07:54:52.997Z,101398.15
2018-05-31T07:57:21.342Z,101399.30
2018-05-31T07:59:49.717Z,101399.61
2018-05-31T08:02:18.307Z,101399.45
2018-05-31T08:04:46.709Z,101399.22
2018-05-31T08:07:15.305Z,101400.08
2018-05-31T08:09:44.592Z,101402.80
2018-05-31T08:12:12.932Z,101406.03
2018-05-31T08:14:41.357Z,101399.53
2018-05-31T08:17:10.750Z,101396.71
2018-05-31T08:19:39.075Z,101406.09
2018-05-31T08:22:07.429Z,101403.98
2018-05-31T08:24:35.754Z,101401.06
2018-05-31T08:27:04.176Z,101402.58
2018-05-31T08:29:33.039Z,101398.03
2018-05-31T08:32:01.356Z,101409.31
2018-05-31T08:34:29.677Z,101407.52
2018-05-31T08:36:58.239Z,101404.00
2018-05-31T08:39:26.537Z,101410.77
2018-05-31T08:41:54.908Z,101404.13
2018-05-31T08:44:23.399Z,101415.39
2018-05-31T08:46:51.713Z,101413.80
2018-05-31T08:49:20.099Z,101409.28
2018-05-31T08:51:48.545Z,101410.20
2018-05-31T08:54:16.882Z,101412.47
2018-05-31T08:56:45.209Z,101408.14
2018-05-31T08:59:13.569Z,101412.13
2018-05-31T09:01:41.903Z,101410.22
2018-05-31T09:04:12.180Z,101409.64
2018-05-31T09:06:40.526Z,101408.70
2018-05-31T09:09:08.848Z,101412.64
2018-05-31T09:11:37.187Z,101407.50
2018-05-31T09:14:06.001Z,101403.17
2018-05-31T09:16:34.346Z,101404.50
2018-05-31T09:19:02.666Z,101408.83
2018-05-31T09:21:31.015Z,101398.59
2018-05-31T09:23:59.338Z,101397.52
2018-05-31T09:26:28.213Z,101403.61
2018-05-31T09:28:56.911Z,101399.69
2018-05-31T09:31:25.376Z,101397.09
2018-05-31T09:33:53.904Z,101400.13
2018-05-31T09:36:22.235Z,101402.98
2018-05-31T09:38:50.836Z,101395.16
2018-05-31T09:41:19.173Z,101391.18
2018-05-31T09:43:47.547Z,101394.83
2018-05-31T09:46:15.926Z,101398.45
2018-05-31T09:48:44.302Z,101398.47
2018-05-31T09:51:12.871Z,101401.05
2018-05-31T09:53:41.194Z,101399.84
2018-05-31T09:56:09.567Z,101401.26
2018-05-31T09:58:37.935Z,101404.39
2018-05-31T10:01:06.275Z,101401.38
2018-05-31T10:03:34.585Z,101396.38
2018-05-31T10:06:03.749Z,101400.73
2018-05-31T10:08:32.092Z,101390.95
2018-05-31T10:11:00.435Z,101394.59
2018-05-31T10:13:29.777Z,101400.29
2018-05-31T10:15:58.164Z,101395.58
2018-05-31T10:18:27.830Z,101393.13
2018-05-31T10:20:56.296Z,101394.49
2018-05-31T10:23:24.636Z,101393.47
2018-05-31T10:25:52.987Z,101395.95
2018-05-31T10:28:21.443Z,101393.00
2018-05-31T10:30:49.848Z,101398.07
2018-05-31T10:33:18.223Z,101401.62
2018-05-31T10:35:47.373Z,101395.32
2018-05-31T10:38:15.846Z,101394.13
2018-05-31T10:40:44.270Z,101394.39
2018-05-31T10:43:12.632Z,101391.82
2018-05-31T10:45:40.946Z,101393.83
2018-05-31T10:48:09.266Z,101395.66
2018-05-31T10:50:39.016Z,101396.14
2018-05-31T10:53:07.373Z,101401.98
2018-05-31T10:55:35.716Z,101393.42
2018-05-31T10:58:04.158Z,101392.33
2018-05-31T11:00:32.511Z,101397.20
2018-05-31T11:03:00.851Z,101395.00
2018-05-31T11:05:29.413Z,101390.53
2018-05-31T11:07:57.778Z,101391.92
2018-05-31T11:10:26.104Z,101392.84
2018-05-31T11:12:55.078Z,101391.77
2018-05-31T11:15:23.690Z,101387.84
2018-05-31T11:17:52.035Z,101391.66
2018-05-31T11:20:20.814Z,101392.38
2018-05-31T11:22:49.189Z,101386.58
2018-05-31T11:25:17.523Z,101380.75
2018-05-31T11:27:46.118Z,101386.03
2018-05-31T11:30:14.487Z,101384.43
2018-05-31T11:32:42.788Z,101386.27
2018-05-31T11:35:11.479Z,101390.31
2018-05-31T11:37:39.810Z,101384.55
2018-05-31T11:40:08.134Z,101394.45
2018-05-31T11:42:36.472Z,101393.73
2018-05-31T11:45:04.811Z,101401.66
2018-05-31T11:47:33.117Z,101391.28
2018-05-31T11:50:01.475Z,101385.98
2018-05-31T11:52:29.773Z,101383.06
2018-05-31T11:54:58.676Z,101387.00
2018-05-31T11:57:27.561Z,101388.39
2018-05-31T11:59:55.932Z,101388.42
2018-05-31T12:02:24.284Z,101388.04
2018-05-31T12:04:53.041Z,101387.53
2018-05-31T12:07:21.442Z,101385.02
2018-05-31T12:09:49.835Z,101378.75
2018-05-31T12:12:18.872Z,101382.94
2018-05-31T12:14:47.243Z,101385.64
2018-05-31T12:17:15.622Z,101381.22
2018-05-31T12:19:44.156Z,101386.77
2018-05-31T12:22:12.492Z,101386.98
2018-05-31T12:24:40.811Z,101377.19
2018-05-31T12:27:09.157Z,101375.69
2018-05-31T12:29:37.467Z,101380.92
2018-05-31T12:32:05.795Z,101379.28
2018-05-31T12:34:34.127Z,101380.39
2018-05-31T12:37:02.458Z,101372.47
2018-05-31T12:39:30.776Z,101376.76
2018-05-31T12:41:59.909Z,101371.67
2018-05-31T12:44:28.312Z,101377.41
2018-05-31T12:46:56.636Z,101375.31
2018-05-31T12:49:25.031Z,101375.83
2018-05-31T12:51:53.389Z,101371.23
2018-05-31T12:54:21.673Z,101377.00
2018-05-31T12:56:50.289Z,101377.58
2018-05-31T12:59:18.968Z,101374.86
2018-05-31T13:01:47.481Z,101369.71
2018-05-31T13:04:15.962Z,101372.13
2018-05-31T13:06:45.037Z,101373.50
2018-05-31T13:09:13.417Z,101373.49
2018-05-31T13:11:41.859Z,101377.19
2018-05-31T13:14:10.168Z,101374.31
2018-05-31T13:16:38.473Z,101377.16
2018-05-31T13:19:06.831Z,101378.67
2018-05-31T13:21:35.145Z,101381.73
2018-05-31T13:24:03.465Z,101379.77
2018-05-31T13:26:32.126Z,101380.06
2018-05-31T13:29:00.438Z,101369.69
2018-05-31T13:31:28.866Z,101368.95
2018-05-31T13:33:57.575Z,101379.87
2018-05-31T13:36:25.882Z,101377.52
2018-05-31T13:38:54.312Z,101373.69
2018-05-31T13:41:22.670Z,101372.48
2018-05-31T13:43:51.011Z,101367.10
2018-05-31T13:46:19.344Z,101367.98
2018-05-31T13:48:48.769Z,101372.73
2018-05-31T13:51:17.252Z,101373.28
2018-05-31T13:53:45.679Z,101367.30
2018-05-31T13:56:14.029Z,101370.24
2018-05-31T13:58:42.385Z,101367.12
2018-05-31T14:01:10.692Z,101369.56
2018-05-31T14:03:39.209Z,101373.11
2018-05-31T14:06:07.598Z,101373.88
2018-05-31T14:08:35.903Z,101374.56
2018-05-31T14:11:04.267Z,101373.78
2018-05-31T14:13:32.579Z,101369.31
2018-05-31T14:16:00.901Z,101374.30
2018-05-31T14:18:29.251Z,101365.37
2018-05-31T14:20:57.644Z,101365.75
2018-05-31T14:23:25.946Z,101357.62
2018-05-31T14:25:54.771Z,101354.36
2018-05-31T14:28:23.097Z,101355.72
2018-05-31T14:30:51.484Z,101355.58
2018-05-31T14:33:19.906Z,101358.09
2018-05-31T14:35:48.359Z,101349.55
2018-05-31T14:38:16.720Z,101344.20
2018-05-31T14:40:45.839Z,101345.98
2018-05-31T14:43:14.207Z,101342.76
2018-05-31T14:45:42.492Z,101345.42
2018-05-31T14:48:11.379Z,101340.34
2018-05-31T14:50:39.700Z,101340.10
2018-05-31T14:53:08.018Z,101341.81
2018-05-31T14:55:38.079Z,101336.22
2018-05-31T14:58:06.412Z,101332.03
2018-05-31T15:00:34.714Z,101343.92
2018-05-31T15:03:03.072Z,101335.88
2018-05-31T15:05:31.361Z,101336.85
2018-05-31T15:07:59.681Z,101338.92
2018-05-31T15:10:28.407Z,101340.95
2018-05-31T15:12:56.689Z,101343.50
2018-05-31T15:15:25.064Z,101334.83
2018-05-31T15:17:53.878Z,101345.58
2018-05-31T15:20:22.245Z,101349.20
2018-05-31T15:22:50.656Z,101352.55
2018-05-31T15:25:19.080Z,101351.85
2018-05-31T15:27:47.543Z,101347.73
2018-05-31T15:30:16.078Z,101349.85
2018-05-31T15:32:44.815Z,101349.84
2018-05-31T15:35:13.308Z,101346.66
2018-05-31T15:37:41.621Z,101336.83
2018-05-31T15:40:10.766Z,101342.01
2018-05-31T15:42:39.084Z,101337.23
2018-05-31T15:45:07.390Z,101334.89
2018-05-31T15:47:35.813Z,101335.50
2018-05-31T15:50:04.190Z,101330.88
2018-05-31T15:52:32.500Z,101329.22
2018-05-31T15:55:00.926Z,101335.78
2018-05-31T15:57:29.253Z,101328.73
2018-05-31T15:59:57.566Z,101324.64
2018-05-31T16:02:25.938Z,101326.70
2018-05-31T16:04:54.303Z,101324.15
2018-05-31T16:07:22.656Z,101326.57
2018-05-31T16:09:51.125Z,101334.23
2018-05-31T16:12:19.487Z,101339.49
2018-05-31T16:14:47.838Z,101339.58
2018-05-31T16:17:16.222Z,101341.38
2018-05-31T16:19:44.803Z,101345.30
2018-05-31T16:22:13.114Z,101343.95
2018-05-31T16:24:41.495Z,101351.42
2018-05-31T16:27:09.802Z,101338.37
2018-05-31T16:29:38.101Z,101350.73
2018-05-31T16:32:07.199Z,101346.19
2018-05-31T16:34:35.509Z,101347.11
2018-05-31T16:37:03.825Z,101341.57
2018-05-31T16:39:33.343Z,101337.29
2018-05-31T16:42:01.731Z,101342.49
2018-05-31T16:44:30.032Z,101341.87
2018-05-31T16:46:58.682Z,101333.80
2018-05-31T16:49:26.981Z,101336.92
2018-05-31T16:51:55.339Z,101324.98
2018-05-31T16:54:23.916Z,101325.84
2018-05-31T16:56:52.344Z,101319.73
2018-05-31T16:59:20.737Z,101329.66
2018-05-31T17:01:49.796Z,101335.31
2018-05-31T17:04:18.253Z,101333.59
2018-05-31T17:06:46.710Z,101322.83
2018-05-31T17:09:15.627Z,101331.50
2018-05-31T17:11:44.946Z,101323.76
2018-05-31T17:14:13.240Z,101333.16
2018-05-31T17:16:42.443Z,101339.84
2018-05-31T17:19:10.783Z,101335.17
2018-05-31T17:21:39.090Z,101340.84
2018-05-31T17:24:07.809Z,101338.95
2018-05-31T17:26:36.127Z,101343.93
2018-05-31T17:29:04.506Z,101345.13
2018-05-31T17:31:32.871Z,101352.44
2018-05-31T17:34:01.196Z,101353.20
2018-05-31T17:36:29.544Z,101349.55
2018-05-31T17:38:58.059Z,101345.45
2018-05-31T17:41:26.386Z,101347.84
2018-05-31T17:43:54.804Z,101344.51
2018-05-31T17:46:23.360Z,101346.47
2018-05-31T17:48:51.681Z,101357.64
2018-05-31T17:51:20.104Z,101341.56
2018-05-31T17:53:49.287Z,101345.09
2018-05-31T17:56:17.741Z,101362.22
2018-05-31T17:58:46.246Z,101355.55
2018-05-31T18:01:15.371Z,101365.76
2018-05-31T18:03:43.676Z,101358.58
2018-05-31T18:06:11.986Z,101364.83
2018-05-31T18:08:40.426Z,101368.33
2018-05-31T18:11:08.742Z,101365.37
2018-05-31T18:13:37.077Z,101365.12
2018-05-31T18:16:05.409Z,101362.11
2018-05-31T18:18:33.790Z,101353.86
2018-05-31T18:21:02.122Z,101355.23
2018-05-31T18:23:30.524Z,101347.92
2018-05-31T18:25:59.014Z,101353.36
2018-05-31T18:28:27.436Z,101352.99
2018-05-31T18:30:55.992Z,101351.95
2018-05-31T18:33:24.402Z,101358.96
2018-05-31T18:35:53.060Z,101359.77
2018-05-31T18:38:21.399Z,101362.16
2018-05-31T18:40:49.754Z,101368.09
2018-05-31T18:43:19.856Z,101369.61
2018-05-31T18:45:50.003Z,101380.25
2018-05-31T18:48:18.381Z,101384.16
2018-05-31T18:50:46.985Z,101383.63
2018-05-31T18:53:16.290Z,101385.79
2018-05-31T18:55:45.652Z,101379.08
2018-05-31T18:58:14.149Z,101384.36
2018-05-31T19:00:42.721Z,101381.88
2018-05-31T19:03:11.018Z,101381.22
2018-05-31T19:05:39.347Z,101388.19
2018-05-31T19:08:07.693Z,101386.70
2018-05-31T19:10:36.023Z,101380.62
2018-05-31T19:13:10.477Z,101386.50
2018-05-31T19:15:38.827Z,101379.19
2018-05-31T19:18:07.134Z,101384.03
2018-05-31T19:20:35.493Z,101383.41
2018-05-31T19:23:03.810Z,101382.03
2018-05-31T19:25:32.214Z,101391.08
2018-05-31T19:28:00.644Z,101385.19
2018-05-31T19:30:34.763Z,101392.09
2018-05-31T19:33:03.425Z,101399.19
2018-05-31T19:35:37.393Z,101394.55
2018-05-31T19:38:05.780Z,101402.52
2018-05-31T19:40:34.080Z,101399.50
2018-05-31T19:43:08.081Z,101402.16
2018-05-31T19:45:36.384Z,101411.00
2018-05-31T19:48:04.702Z,101414.94
2018-05-31T19:50:33.030Z,101409.09
2018-05-31T19:53:06.949Z,101414.09
2018-05-31T19:55:35.452Z,101414.36
2018-05-31T19:58:09.318Z,101415.02
2018-05-31T20:00:44.123Z,101412.89
2018-05-31T20:03:18.064Z,101406.42
2018-05-31T20:05:47.334Z,101419.81
2018-05-31T20:08:15.662Z,101406.34
2018-05-31T20:10:44.036Z,101412.73
2018-05-31T20:13:12.392Z,101408.98
2018-05-31T20:15:40.720Z,101409.23
2018-05-31T20:18:09.142Z,101410.55
2018-05-31T20:20:38.346Z,101412.69
2018-05-31T20:23:06.655Z,101413.31
2018-05-31T20:25:34.969Z,101410.13
2018-05-31T20:28:03.301Z,101405.21
2018-05-31T20:30:31.612Z,101402.87
2018-05-31T20:32:59.928Z,101397.67
2018-05-31T20:35:28.305Z,101396.92
2018-05-31T20:37:56.699Z,101395.41
2018-05-31T20:40:25.124Z,101401.82
2018-05-31T20:42:53.613Z,101408.81
2018-05-31T20:45:22.001Z,101408.89
2018-05-31T20:47:50.436Z,101401.48
2018-05-31T20:50:19.902Z,101401.47
2018-05-31T20:52:48.292Z,101405.17
2018-05-31T20:55:16.947Z,101404.20
2018-05-31T20:57:45.430Z,101398.86
2018-05-31T21:00:13.738Z,101406.13
2018-05-31T21:02:43.238Z,101404.96
2018-05-31T21:05:11.588Z,101399.70
2018-05-31T21:07:39.907Z,101400.21
2018-05-31T21:10:08.214Z,101398.48
2018-05-31T21:12:36.539Z,101399.27
2018-05-31T21:15:04.860Z,101398.86
2018-05-31T21:17:33.167Z,101398.51
2018-05-31T21:20:01.536Z,101398.19
2018-05-31T21:22:29.813Z,101395.85
2018-05-31T21:24:58.132Z,101403.95
2018-05-31T21:27:26.597Z,101394.71
2018-05-31T21:29:54.976Z,101389.31
2018-05-31T21:32:23.286Z,101385.18
2018-05-31T21:34:51.693Z,101387.19
2018-05-31T21:37:20.039Z,101387.25
2018-05-31T21:39:48.425Z,101392.59
2018-05-31T21:42:16.879Z,101392.09
2018-05-31T21:44:45.259Z,101391.33
2018-05-31T21:47:13.668Z,101387.42
2018-05-31T21:49:41.961Z,101392.31
2018-05-31T21:52:10.314Z,101390.19
2018-05-31T21:54:38.606Z,101392.89
2018-05-31T21:57:06.938Z,101392.54
2018-05-31T21:59:35.257Z,101393.39
2018-05-31T22:02:03.698Z,101390.13
2018-05-31T22:04:32.033Z,101397.90
2018-05-31T22:07:00.335Z,101388.30
2018-05-31T22:09:28.661Z,101393.98
2018-05-31T22:11:58.273Z,101396.28
2018-05-31T22:14:26.676Z,101394.66
2018-05-31T22:16:55.061Z,101397.06
2018-05-31T22:19:24.386Z,101398.11
2018-05-31T22:21:52.940Z,101397.61
2018-05-31T22:24:21.287Z,101397.11
2018-05-31T22:26:50.667Z,101398.61
2018-05-31T22:29:19.060Z,101391.50
2018-05-31T22:31:47.550Z,101392.98
2018-05-31T22:34:15.951Z,101394.78
2018-05-31T22:36:44.236Z,101394.72
2018-05-31T22:39:12.619Z,101390.30
2018-05-31T22:41:41.111Z,101398.70
2018-05-31T22:44:09.446Z,101399.97
2018-05-31T22:46:37.769Z,101398.34
2018-05-31T22:49:06.979Z,101398.46
2018-05-31T22:51:35.317Z,101391.87
2018-05-31T22:54:03.715Z,101393.15
2018-05-31T22:56:32.054Z,101393.55
2018-05-31T22:59:00.380Z,101387.86
2018-05-31T23:01:29.328Z,101379.27
2018-05-31T23:03:58.338Z,101383.19
2018-05-31T23:06:26.758Z,101383.52
2018-05-31T23:08:55.127Z,101381.44
2018-05-31T23:11:23.684Z,101382.16
2018-05-31T23:13:52.143Z,101388.48
2018-05-31T23:16:20.536Z,101382.52
2018-05-31T23:18:49.017Z,101385.08
2018-05-31T23:21:17.389Z,101378.44
2018-05-31T23:23:45.834Z,101378.02
2018-05-31T23:26:14.834Z,101380.69
2018-05-31T23:28:43.156Z,101385.30
2018-05-31T23:31:11.418Z,101382.89
2018-05-31T23:33:39.757Z,101385.20
2018-05-31T23:36:08.072Z,101390.61
2018-05-31T23:38:36.381Z,101384.58
2018-05-31T23:41:04.723Z,101380.59
2018-05-31T23:43:33.041Z,101382.22
2018-05-31T23:46:01.366Z,101379.23
2018-05-31T23:48:30.288Z,101386.17
2018-05-31T23:50:58.590Z,101376.36
2018-05-31T23:53:26.966Z,101386.88
2018-05-31T23:55:55.594Z,101380.98
2018-05-31T23:58:23.981Z,101386.67
